Time;durP1;ratioP1;P1;durP2;ratioP2;P2;SDS_P1;SDS_P2;PMS_P1;PMS_P2;Temp;Humidity;BMP_temperature;BMP_pressure;BME280_temperature;BME280_humidity;BME280_pressure;Samples;Min_cycle;Max_cycle;Signal;HPM_P1;HPM_P2
2024/01/12 00:00:12;;;;;;;;;;;1.10;99.90;;;;;;5092163;28;19920;-75
2024/01/12 00:02:40;;;;;;;;;;;1.00;99.90;;;;;;5099611;28;19930;-76
2024/01/12 00:05:09;;;;;;;;;;;0.90;99.90;;;;;;5100008;28;20001;-71
2024/01/12 00:07:38;;;;;;;;;;;0.80;99.90;;;;;;5107100;28;19920;-73
2024/01/12 00:10:08;;;;;;;;;;;0.80;99.90;;;;;;5111929;28;20019;-71
2024/01/12 00:12:36;;;;;;;;;;;1.00;99.90;;;;;;5100819;28;19920;-72
2024/01/12 00:15:05;;;;;;;;;;;0.90;99.90;;;;;;5110999;28;19962;-73
2024/01/12 00:17:33;;;;;;;;;;;1.00;99.90;;;;;;5111573;28;19923;-72
2024/01/12 00:20:00;;;;;;;;;;;1.20;99.90;;;;;;5103403;28;19927;-73
2024/01/12 00:22:28;;;;;;;;;;;1.10;99.90;;;;;;5112116;28;19920;-74
2024/01/12 00:24:58;;;;;;;;;;;1.30;99.90;;;;;;5103365;28;19919;-71
2024/01/12 00:27:26;;;;;;;;;;;1.40;99.90;;;;;;5105251;28;19924;-74
2024/01/12 00:29:53;;;;;;;;;;;1.40;99.90;;;;;;5100251;28;19926;-75
2024/01/12 00:32:21;;;;;;;;;;;1.20;99.90;;;;;;5111863;28;19919;-73
2024/01/12 00:34:49;;;;;;;;;;;1.20;99.90;;;;;;5103205;28;19927;-76
2024/01/12 00:37:17;;;;;;;;;;;1.40;99.90;;;;;;5099365;28;19924;-74
2024/01/12 00:39:45;;;;;;;;;;;1.60;99.90;;;;;;5107623;28;19928;-72
2024/01/12 00:42:14;;;;;;;;;;;1.80;99.90;;;;;;5099862;28;19920;-72
2024/01/12 00:44:42;;;;;;;;;;;1.70;99.90;;;;;;5091499;28;20403;-72
2024/01/12 00:47:10;;;;;;;;;;;1.80;99.90;;;;;;5107961;28;19943;-71
2024/01/12 00:49:38;;;;;;;;;;;1.70;99.90;;;;;;5098100;28;19919;-72
2024/01/12 00:52:06;;;;;;;;;;;1.90;99.90;;;;;;5102905;28;20391;-73
2024/01/12 00:54:33;;;;;;;;;;;1.90;99.90;;;;;;5112272;28;20401;-72
2024/01/12 00:57:01;;;;;;;;;;;1.70;99.90;;;;;;5103281;28;19920;-74
2024/01/12 00:59:31;;;;;;;;;;;1.80;99.90;;;;;;5099922;28;20408;-75
2024/01/12 01:01:58;;;;;;;;;;;2.00;99.90;;;;;;5112058;28;19919;-72
2024/01/12 01:04:27;;;;;;;;;;;2.00;99.90;;;;;;5111650;28;20377;-74
2024/01/12 01:06:54;;;;;;;;;;;2.10;99.90;;;;;;5106791;28;20361;-74
2024/01/12 01:09:22;;;;;;;;;;;2.30;99.90;;;;;;5115696;28;19920;-74
2024/01/12 01:11:52;;;;;;;;;;;2.10;99.90;;;;;;5115596;28;19927;-73
2024/01/12 01:14:24;;;;;;;;;;;2.20;99.90;;;;;;5098767;28;20351;-73
2024/01/12 01:16:54;;;;;;;;;;;2.30;99.90;;;;;;5114324;28;19919;-73
2024/01/12 01:19:23;;;;;;;;;;;2.30;99.90;;;;;;5103152;28;20086;-73
2024/01/12 01:21:51;;;;;;;;;;;2.40;99.90;;;;;;5111487;28;20002;-73
2024/01/12 01:24:19;;;;;;;;;;;2.60;99.90;;;;;;5115523;28;19930;-74
2024/01/12 01:26:46;;;;;;;;;;;2.80;99.90;;;;;;5107963;28;20421;-73
2024/01/12 01:29:14;;;;;;;;;;;2.80;99.90;;;;;;5098152;28;19931;-73
2024/01/12 01:31:42;;;;;;;;;;;3.00;99.90;;;;;;5108429;28;19920;-73
2024/01/12 01:34:11;;;;;;;;;;;3.00;99.90;;;;;;5102927;28;19942;-73
2024/01/12 01:36:39;;;;;;;;;;;3.00;99.90;;;;;;5100287;28;20011;-73
2024/01/12 01:39:08;;;;;;;;;;;3.10;99.90;;;;;;5113107;28;20400;-75
2024/01/12 01:41:36;;;;;;;;;;;3.20;99.90;;;;;;5108664;28;19924;-74
2024/01/12 01:44:04;;;;;;;;;;;3.30;99.90;;;;;;5114822;28;19972;-73
2024/01/12 01:46:32;;;;;;;;;;;3.50;99.90;;;;;;5109697;28;20398;-73
2024/01/12 01:49:00;;;;;;;;;;;3.40;99.90;;;;;;5110789;28;19929;-73
2024/01/12 01:51:29;;;;;;;;;;;3.40;99.90;;;;;;5099009;28;19920;-73
2024/01/12 01:53:57;;;;;;;;;;;3.40;99.90;;;;;;5106398;28;19931;-72
2024/01/12 01:56:25;;;;;;;;;;;3.30;99.90;;;;;;5110613;28;19955;-72
2024/01/12 01:58:53;;;;;;;;;;;3.30;99.90;;;;;;5102516;28;19920;-73
2024/01/12 02:01:21;;;;;;;;;;;3.20;99.90;;;;;;5105816;28;20010;-73
2024/01/12 02:03:49;;;;;;;;;;;3.30;99.90;;;;;;5109156;28;19920;-72
2024/01/12 02:06:17;;;;;;;;;;;3.20;99.90;;;;;;5097230;28;20365;-74
2024/01/12 02:08:47;;;;;;;;;;;3.20;99.90;;;;;;5107635;28;19927;-74
2024/01/12 02:11:15;;;;;;;;;;;2.90;99.90;;;;;;5110711;28;20367;-72
2024/01/12 02:13:43;;;;;;;;;;;2.90;99.90;;;;;;5100308;28;20025;-72
2024/01/12 02:16:11;;;;;;;;;;;2.90;99.90;;;;;;5113416;28;19924;-75
2024/01/12 02:18:39;;;;;;;;;;;2.90;99.90;;;;;;5114063;28;19919;-72
2024/01/12 02:21:08;;;;;;;;;;;2.90;99.90;;;;;;5112957;28;20011;-71
2024/01/12 02:23:36;;;;;;;;;;;2.60;99.90;;;;;;5113851;28;20447;-71
2024/01/12 02:26:04;;;;;;;;;;;2.70;99.90;;;;;;5105102;28;19943;-71
2024/01/12 02:28:32;;;;;;;;;;;2.80;99.90;;;;;;5100666;28;19927;-72
2024/01/12 02:31:00;;;;;;;;;;;2.60;99.90;;;;;;5101754;28;19919;-73
2024/01/12 02:33:28;;;;;;;;;;;2.60;99.90;;;;;;5113768;28;20309;-72
2024/01/12 02:35:56;;;;;;;;;;;2.60;99.90;;;;;;5106955;28;20016;-70
2024/01/12 02:38:25;;;;;;;;;;;2.80;99.90;;;;;;5113146;28;19926;-71
2024/01/12 02:40:53;;;;;;;;;;;2.70;99.90;;;;;;5106716;28;19927;-72
2024/01/12 02:43:21;;;;;;;;;;;2.50;99.90;;;;;;5104555;28;19919;-72
2024/01/12 02:45:48;;;;;;;;;;;2.50;99.90;;;;;;5113569;28;19927;-72
2024/01/12 02:48:16;;;;;;;;;;;2.40;99.90;;;;;;5094294;28;19924;-72
2024/01/12 02:50:44;;;;;;;;;;;2.20;99.90;;;;;;5107796;28;19924;-72
2024/01/12 02:53:12;;;;;;;;;;;2.10;99.90;;;;;;5105567;28;20012;-73
2024/01/12 02:55:41;;;;;;;;;;;2.20;99.90;;;;;;5104608;28;19965;-72
2024/01/12 02:58:09;;;;;;;;;;;2.40;99.90;;;;;;5103377;28;19920;-75
2024/01/12 03:00:37;;;;;;;;;;;2.50;99.90;;;;;;5097622;28;20388;-73
2024/01/12 03:03:05;;;;;;;;;;;2.60;99.90;;;;;;5102757;28;19920;-73
2024/01/12 03:05:33;;;;;;;;;;;2.80;99.90;;;;;;5112716;28;20294;-74
2024/01/12 03:08:01;;;;;;;;;;;2.90;99.90;;;;;;5105188;28;19920;-74
2024/01/12 03:10:29;;;;;;;;;;;2.80;99.90;;;;;;5096240;28;19955;-72
2024/01/12 03:12:58;;;;;;;;;;;2.80;99.90;;;;;;5113311;28;19927;-72
2024/01/12 03:15:25;;;;;;;;;;;2.80;99.90;;;;;;5095523;28;19923;-72
2024/01/12 03:17:53;;;;;;;;;;;2.70;99.90;;;;;;5106432;28;19931;-72
2024/01/12 03:20:22;;;;;;;;;;;2.70;99.90;;;;;;5102954;28;19920;-72
2024/01/12 03:22:50;;;;;;;;;;;2.60;99.90;;;;;;5104314;28;19942;-73
2024/01/12 03:25:18;;;;;;;;;;;2.60;99.90;;;;;;5104184;28;20243;-72
2024/01/12 03:27:46;;;;;;;;;;;2.60;99.90;;;;;;5106366;28;20302;-72
2024/01/12 03:30:16;;;;;;;;;;;2.40;99.90;;;;;;5101785;28;19926;-71
2024/01/12 03:32:44;;;;;;;;;;;2.50;99.90;;;;;;5106053;28;20374;-70
2024/01/12 03:35:12;;;;;;;;;;;2.50;99.90;;;;;;5102668;28;19998;-70
2024/01/12 03:37:40;;;;;;;;;;;2.50;99.90;;;;;;5105582;28;19920;-70
2024/01/12 03:40:09;;;;;;;;;;;2.60;99.90;;;;;;5103648;28;19920;-71
2024/01/12 03:42:36;;;;;;;;;;;2.70;99.90;;;;;;5106129;28;19926;-72
2024/01/12 03:45:05;;;;;;;;;;;2.70;99.90;;;;;;5112678;28;19928;-72
2024/01/12 03:47:34;;;;;;;;;;;2.80;99.90;;;;;;5112615;28;19955;-71
2024/01/12 03:50:02;;;;;;;;;;;2.60;99.90;;;;;;5103533;28;20017;-72
2024/01/12 03:52:30;;;;;;;;;;;2.60;99.90;;;;;;5108664;28;19926;-76
2024/01/12 03:54:58;;;;;;;;;;;2.70;99.90;;;;;;5098907;28;20402;-71
2024/01/12 03:57:26;;;;;;;;;;;2.50;99.90;;;;;;5102149;28;19923;-70
2024/01/12 03:59:54;;;;;;;;;;;2.50;99.90;;;;;;5097004;28;19929;-72
2024/01/12 04:02:21;;;;;;;;;;;2.50;99.90;;;;;;5093367;28;19965;-72
2024/01/12 04:04:51;;;;;;;;;;;2.50;99.90;;;;;;5117557;22;20337;-66
2024/01/12 04:07:19;;;;;;;;;;;2.40;99.90;;;;;;5061080;28;19920;-66
2024/01/12 04:09:47;;;;;;;;;;;2.50;99.90;;;;;;5066398;28;20304;-67
2024/01/12 04:12:15;;;;;;;;;;;2.20;99.90;;;;;;5058565;28;19921;-66
2024/01/12 04:14:44;;;;;;;;;;;2.30;99.90;;;;;;5048790;28;19921;-66
2024/01/12 04:17:12;;;;;;;;;;;2.30;99.90;;;;;;5039568;28;19921;-66
2024/01/12 04:19:40;;;;;;;;;;;2.50;99.90;;;;;;5044314;28;20454;-67
2024/01/12 04:22:09;;;;;;;;;;;2.60;99.90;;;;;;5043621;28;20360;-67
2024/01/12 04:24:37;;;;;;;;;;;2.70;99.90;;;;;;5024413;28;19976;-67
2024/01/12 04:27:05;;;;;;;;;;;2.70;99.90;;;;;;5039558;28;19929;-66
2024/01/12 04:29:34;;;;;;;;;;;2.70;99.90;;;;;;5031243;28;19921;-66
2024/01/12 04:32:01;;;;;;;;;;;2.60;99.90;;;;;;5039680;28;19925;-67
2024/01/12 04:34:29;;;;;;;;;;;2.60;99.90;;;;;;5047863;28;19950;-67
2024/01/12 04:36:57;;;;;;;;;;;2.50;99.90;;;;;;5031309;28;19925;-66
2024/01/12 04:39:26;;;;;;;;;;;2.60;99.90;;;;;;5030651;28;19921;-67
2024/01/12 04:41:54;;;;;;;;;;;2.60;99.90;;;;;;5031110;28;19928;-66
2024/01/12 04:44:22;;;;;;;;;;;2.50;99.90;;;;;;5032539;28;20024;-66
2024/01/12 04:46:50;;;;;;;;;;;2.60;99.90;;;;;;5045459;28;19921;-66
2024/01/12 04:49:17;;;;;;;;;;;2.70;99.90;;;;;;5040296;28;19931;-67
2024/01/12 04:51:45;;;;;;;;;;;2.90;99.90;;;;;;5038523;28;19974;-68
2024/01/12 04:54:13;;;;;;;;;;;3.00;99.90;;;;;;5032824;28;19927;-67
2024/01/12 04:56:42;;;;;;;;;;;3.20;99.90;;;;;;5041247;28;19925;-68
2024/01/12 04:59:10;;;;;;;;;;;3.30;99.90;;;;;;5027476;28;19960;-68
2024/01/12 05:01:38;;;;;;;;;;;3.30;99.90;;;;;;5037637;28;20379;-68
2024/01/12 05:04:05;;;;;;;;;;;3.20;99.90;;;;;;5033093;28;19921;-68
2024/01/12 05:06:33;;;;;;;;;;;3.20;99.90;;;;;;5029746;28;19921;-68
2024/01/12 05:09:01;;;;;;;;;;;3.20;99.90;;;;;;5030159;28;19975;-68
2024/01/12 05:11:29;;;;;;;;;;;3.20;99.90;;;;;;5030498;28;20300;-70
2024/01/12 05:13:59;;;;;;;;;;;2.80;99.90;;;;;;5041874;28;19920;-68
2024/01/12 05:16:27;;;;;;;;;;;2.50;99.90;;;;;;5029564;28;19921;-67
2024/01/12 05:18:55;;;;;;;;;;;2.30;99.90;;;;;;5020505;28;19929;-66
2024/01/12 05:21:23;;;;;;;;;;;2.30;99.90;;;;;;5021247;28;19929;-67
2024/01/12 05:23:51;;;;;;;;;;;2.10;99.90;;;;;;5022221;28;19929;-66
2024/01/12 05:26:18;;;;;;;;;;;2.10;99.90;;;;;;5021925;28;20348;-67
2024/01/12 05:28:46;;;;;;;;;;;2.00;99.90;;;;;;5022184;28;19929;-67
2024/01/12 05:31:16;;;;;;;;;;;1.90;99.90;;;;;;5021666;28;19933;-67
2024/01/12 05:33:43;;;;;;;;;;;1.90;99.90;;;;;;5021308;28;19943;-67
2024/01/12 05:36:12;;;;;;;;;;;1.90;99.90;;;;;;5021462;28;19929;-67
2024/01/12 05:38:40;;;;;;;;;;;1.90;99.90;;;;;;5021493;28;19983;-68
2024/01/12 05:41:08;;;;;;;;;;;1.80;99.90;;;;;;5020765;28;19925;-67
2024/01/12 05:43:34;;;;;;;;;;;1.70;99.90;;;;;;5022203;28;19936;-67
2024/01/12 05:46:02;;;;;;;;;;;1.70;99.90;;;;;;5023589;28;19921;-68
2024/01/12 05:48:31;;;;;;;;;;;1.70;99.90;;;;;;5022953;28;19931;-67
2024/01/12 05:51:00;;;;;;;;;;;1.60;99.90;;;;;;5020453;28;19999;-67
2024/01/12 05:53:28;;;;;;;;;;;1.50;99.90;;;;;;5023378;28;20030;-66
2024/01/12 05:55:55;;;;;;;;;;;1.60;99.90;;;;;;5023286;28;20000;-67
2024/01/12 05:58:23;;;;;;;;;;;1.70;99.90;;;;;;5023570;28;20028;-67
2024/01/12 06:00:51;;;;;;;;;;;1.70;99.90;;;;;;5025155;28;19925;-67
2024/01/12 06:03:19;;;;;;;;;;;1.50;99.90;;;;;;5027344;28;19933;-67
2024/01/12 06:05:50;;;;;;;;;;;1.40;99.90;;;;;;5025903;28;19976;-68
2024/01/12 06:08:18;;;;;;;;;;;1.40;99.90;;;;;;5028566;28;19929;-68
2024/01/12 06:10:46;;;;;;;;;;;1.30;99.90;;;;;;5025778;28;19972;-67
2024/01/12 06:13:13;;;;;;;;;;;1.20;99.90;;;;;;5026554;28;19925;-67
2024/01/12 06:15:41;;;;;;;;;;;1.40;99.90;;;;;;5024140;28;19929;-68
2024/01/12 06:18:09;;;;;;;;;;;1.40;99.90;;;;;;5025552;28;19948;-66
2024/01/12 06:20:37;;;;;;;;;;;1.30;99.90;;;;;;5024447;28;19925;-67
2024/01/12 06:23:06;;;;;;;;;;;1.20;99.90;;;;;;5023958;28;19999;-67
2024/01/12 06:25:36;;;;;;;;;;;1.00;99.90;;;;;;5023961;28;19925;-68
2024/01/12 06:28:04;;;;;;;;;;;0.90;99.90;;;;;;5024086;28;19936;-68
2024/01/12 06:30:33;;;;;;;;;;;0.90;99.90;;;;;;5024269;28;20308;-68
2024/01/12 06:33:01;;;;;;;;;;;0.90;99.90;;;;;;5023009;28;19925;-67
2024/01/12 06:35:29;;;;;;;;;;;0.80;99.90;;;;;;5025236;28;20364;-67
2024/01/12 06:37:57;;;;;;;;;;;0.80;99.90;;;;;;5026214;28;20380;-67
2024/01/12 06:40:26;;;;;;;;;;;0.80;99.90;;;;;;5024441;28;19929;-66
2024/01/12 06:42:54;;;;;;;;;;;0.80;99.90;;;;;;5023669;28;19936;-67
2024/01/12 06:45:22;;;;;;;;;;;0.90;99.90;;;;;;5025206;28;19933;-67
2024/01/12 06:47:50;;;;;;;;;;;1.10;99.90;;;;;;5023571;28;19936;-68
2024/01/12 06:50:18;;;;;;;;;;;1.00;99.90;;;;;;5022607;28;19929;-64
2024/01/12 06:52:46;;;;;;;;;;;1.10;99.90;;;;;;5023091;28;20018;-67
2024/01/12 06:55:13;;;;;;;;;;;1.20;99.90;;;;;;5021834;28;19962;-67
2024/01/12 06:57:43;;;;;;;;;;;1.10;99.90;;;;;;5021303;28;20324;-67
2024/01/12 07:00:11;;;;;;;;;;;1.20;99.90;;;;;;5023473;28;19935;-66
2024/01/12 07:02:40;;;;;;;;;;;1.10;99.90;;;;;;5019876;28;20019;-67
2024/01/12 07:05:08;;;;;;;;;;;1.00;99.90;;;;;;5021592;28;19924;-63
2024/01/12 07:07:36;;;;;;;;;;;0.80;99.90;;;;;;5021907;28;19929;-65
2024/01/12 07:10:04;;;;;;;;;;;0.70;99.90;;;;;;5033292;28;19928;-65
2024/01/12 07:12:32;;;;;;;;;;;0.80;99.90;;;;;;5037539;28;19925;-67
2024/01/12 07:15:01;;;;;;;;;;;0.70;99.90;;;;;;5043229;28;19921;-67
2024/01/12 07:17:29;;;;;;;;;;;0.60;99.90;;;;;;5038485;28;20002;-66
2024/01/12 07:19:57;;;;;;;;;;;0.60;99.90;;;;;;5042130;28;19970;-65
2024/01/12 07:22:25;;;;;;;;;;;0.70;99.90;;;;;;5047169;28;20019;-67
2024/01/12 07:24:52;;;;;;;;;;;0.60;99.90;;;;;;5036466;28;19928;-67
2024/01/12 07:27:20;;;;;;;;;;;0.60;99.90;;;;;;5041786;28;19921;-65
2024/01/12 07:29:48;;;;;;;;;;;0.60;99.90;;;;;;5035111;28;20449;-67
2024/01/12 07:32:17;;;;;;;;;;;0.50;99.90;;;;;;5034074;28;20410;-66
2024/01/12 07:34:45;;;;;;;;;;;0.60;99.90;;;;;;5037214;28;19987;-66
2024/01/12 07:37:14;;;;;;;;;;;0.50;99.90;;;;;;5048493;28;19930;-66
2024/01/12 07:39:42;;;;;;;;;;;0.50;99.90;;;;;;5036132;28;19989;-66
2024/01/12 07:42:11;;;;;;;;;;;0.50;99.90;;;;;;5033304;28;19924;-66
2024/01/12 07:44:39;;;;;;;;;;;0.40;99.90;;;;;;5033902;28;19964;-66
2024/01/12 07:47:07;;;;;;;;;;;0.40;99.90;;;;;;5044443;28;19931;-66
2024/01/12 07:49:36;;;;;;;;;;;0.40;99.90;;;;;;5044691;28;19971;-66
2024/01/12 07:52:06;;;;;;;;;;;0.50;99.90;;;;;;5046945;28;19935;-67
2024/01/12 07:54:34;;;;;;;;;;;0.60;99.90;;;;;;5040690;28;20300;-66
2024/01/12 07:57:25;;;;;;;;;;;0.60;99.90;;;;;;5035311;28;20417;-64
2024/01/12 07:59:55;;;;;;;;;;;0.80;99.90;;;;;;5039167;28;19928;-66
2024/01/12 08:02:23;;;;;;;;;;;0.70;99.90;;;;;;5041771;28;19932;-66
2024/01/12 08:04:53;;;;;;;;;;;0.80;99.90;;;;;;5040792;28;19952;-66
2024/01/12 08:07:20;;;;;;;;;;;0.90;99.90;;;;;;5032968;28;19928;-66
2024/01/12 08:09:48;;;;;;;;;;;0.90;99.90;;;;;;5043442;28;20449;-66
2024/01/12 08:12:16;;;;;;;;;;;0.90;99.90;;;;;;5038482;28;20300;-66
2024/01/12 08:15:09;;;;;;;;;;;1.00;99.90;;;;;;5025873;28;19956;-65
2024/01/12 08:17:38;;;;;;;;;;;1.10;99.90;;;;;;5047419;28;20418;-66
2024/01/12 08:20:08;;;;;;;;;;;1.10;99.90;;;;;;5032811;28;19948;-66
2024/01/12 08:22:35;;;;;;;;;;;1.10;99.90;;;;;;5032604;28;19921;-65
2024/01/12 08:25:03;;;;;;;;;;;1.20;99.90;;;;;;5032682;28;20373;-66
2024/01/12 08:27:31;;;;;;;;;;;1.10;99.90;;;;;;5031951;28;20414;-67
2024/01/12 08:29:59;;;;;;;;;;;1.10;99.90;;;;;;5032958;28;19964;-65
2024/01/12 08:32:27;;;;;;;;;;;1.00;99.90;;;;;;5040818;28;19921;-66
2024/01/12 08:34:56;;;;;;;;;;;1.00;99.90;;;;;;5040716;28;19925;-65
2024/01/12 08:37:25;;;;;;;;;;;1.00;99.90;;;;;;5032188;28;19933;-67
2024/01/12 08:39:53;;;;;;;;;;;0.90;99.90;;;;;;5041291;28;20328;-65
2024/01/12 08:42:20;;;;;;;;;;;0.90;99.90;;;;;;5032147;28;19920;-66
2024/01/12 08:44:48;;;;;;;;;;;0.80;99.90;;;;;;5041678;28;19936;-66
2024/01/12 08:47:18;;;;;;;;;;;0.70;99.90;;;;;;5033368;28;19921;-66
2024/01/12 08:49:46;;;;;;;;;;;0.70;99.90;;;;;;5032981;28;20011;-66
2024/01/12 08:52:14;;;;;;;;;;;0.60;99.90;;;;;;5045920;28;19963;-66
2024/01/12 08:54:43;;;;;;;;;;;0.50;99.90;;;;;;5034360;28;20392;-66
2024/01/12 08:57:11;;;;;;;;;;;0.50;99.90;;;;;;5031759;28;19925;-66
2024/01/12 08:59:39;;;;;;;;;;;0.40;99.90;;;;;;5031902;28;19921;-65
2024/01/12 09:02:07;;;;;;;;;;;0.40;99.90;;;;;;5032909;28;19925;-66
2024/01/12 09:04:35;;;;;;;;;;;0.50;99.90;;;;;;5040384;28;19921;-66
2024/01/12 09:07:03;;;;;;;;;;;0.40;99.90;;;;;;5023950;28;19921;-67
2024/01/12 09:09:31;;;;;;;;;;;0.50;99.90;;;;;;5032037;28;19968;-67
2024/01/12 09:12:00;;;;;;;;;;;0.60;99.90;;;;;;5043341;28;19922;-67
2024/01/12 09:14:28;;;;;;;;;;;0.60;99.90;;;;;;5039937;28;19921;-67
2024/01/12 09:16:56;;;;;;;;;;;0.70;99.90;;;;;;5033461;28;19932;-67
2024/01/12 09:19:24;;;;;;;;;;;0.70;99.90;;;;;;5051160;28;19924;-67
2024/01/12 09:21:52;;;;;;;;;;;0.80;99.90;;;;;;5032968;28;19939;-67
2024/01/12 09:24:19;;;;;;;;;;;0.90;99.90;;;;;;5045906;28;20346;-67
2024/01/12 09:26:47;;;;;;;;;;;0.90;99.90;;;;;;5036378;28;19921;-67
2024/01/12 09:29:16;;;;;;;;;;;0.90;99.90;;;;;;5035790;28;19967;-67
2024/01/12 09:31:44;;;;;;;;;;;0.90;99.90;;;;;;5035472;28;20368;-66
2024/01/12 09:34:12;;;;;;;;;;;0.80;99.90;;;;;;5040049;28;19925;-67
2024/01/12 09:36:40;;;;;;;;;;;0.80;99.90;;;;;;5046650;28;20443;-65
2024/01/12 09:39:14;;;;;;;;;;;0.70;99.90;;;;;;5044215;28;20011;-67
2024/01/12 09:41:45;;;;;;;;;;;0.70;99.90;;;;;;5043792;28;19951;-66
2024/01/12 09:44:13;;;;;;;;;;;0.60;99.90;;;;;;5046812;28;19929;-68
2024/01/12 09:46:52;;;;;;;;;;;0.70;99.90;;;;;;5038224;28;19990;-65
2024/01/12 09:49:21;;;;;;;;;;;0.70;99.90;;;;;;5041370;28;19928;-66
2024/01/12 09:51:49;;;;;;;;;;;0.70;99.90;;;;;;5035893;28;19943;-67
2024/01/12 09:54:17;;;;;;;;;;;0.80;99.90;;;;;;5040175;28;19965;-67
2024/01/12 09:56:45;;;;;;;;;;;0.80;99.90;;;;;;5037214;28;20296;-67
2024/01/12 09:59:13;;;;;;;;;;;0.80;99.90;;;;;;5035034;28;20323;-67
2024/01/12 10:01:43;;;;;;;;;;;0.90;99.90;;;;;;5035239;28;19932;-67
2024/01/12 10:04:11;;;;;;;;;;;0.90;99.90;;;;;;5027926;28;19928;-67
2024/01/12 10:06:39;;;;;;;;;;;0.90;99.90;;;;;;5034412;28;19921;-67
2024/01/12 10:09:08;;;;;;;;;;;0.90;99.90;;;;;;5034444;28;20007;-67
2024/01/12 10:11:35;;;;;;;;;;;1.00;99.90;;;;;;5043147;28;19956;-67
2024/01/12 10:14:04;;;;;;;;;;;1.10;99.90;;;;;;5034828;28;19936;-66
2024/01/12 10:16:32;;;;;;;;;;;1.10;99.90;;;;;;5041184;28;20415;-67
2024/01/12 10:19:01;;;;;;;;;;;1.10;99.90;;;;;;5046176;28;20402;-67
2024/01/12 10:21:29;;;;;;;;;;;1.20;99.90;;;;;;5048838;28;19921;-67
2024/01/12 10:24:06;;;;;;;;;;;1.20;99.90;;;;;;5051055;28;19979;-67
2024/01/12 10:26:34;;;;;;;;;;;1.20;99.90;;;;;;5041149;28;19927;-67
2024/01/12 10:29:02;;;;;;;;;;;1.10;99.90;;;;;;5035829;28;19921;-67
2024/01/12 10:31:31;;;;;;;;;;;1.10;99.90;;;;;;5034618;28;19921;-67
2024/01/12 10:34:00;;;;;;;;;;;1.10;99.90;;;;;;5034712;28;19943;-67
2024/01/12 10:36:31;;;;;;;;;;;1.00;99.90;;;;;;5033730;28;19932;-67
2024/01/12 10:39:00;;;;;;;;;;;1.00;99.90;;;;;;5043156;28;19928;-65
2024/01/12 10:41:29;;;;;;;;;;;1.10;99.90;;;;;;5034616;28;20297;-67
2024/01/12 10:43:59;;;;;;;;;;;1.20;99.90;;;;;;5052208;28;19920;-67
2024/01/12 10:46:33;;;;;;;;;;;1.20;99.90;;;;;;5039647;28;19925;-66
2024/01/12 10:49:04;;;;;;;;;;;1.20;99.90;;;;;;5042552;28;19936;-66
2024/01/12 10:51:37;;;;;;;;;;;1.20;99.90;;;;;;5034765;28;20380;-67
2024/01/12 10:54:05;;;;;;;;;;;1.20;99.90;;;;;;5042738;28;19979;-67
2024/01/12 10:56:35;;;;;;;;;;;1.20;99.90;;;;;;5040459;28;19920;-67
2024/01/12 10:59:04;;;;;;;;;;;1.30;99.90;;;;;;5034565;28;19924;-67
2024/01/12 11:01:33;;;;;;;;;;;1.40;99.90;;;;;;5042343;28;20406;-67
2024/01/12 11:04:03;;;;;;;;;;;1.50;99.90;;;;;;5041834;28;19940;-67
2024/01/12 11:06:32;;;;;;;;;;;1.50;99.90;;;;;;5047557;28;19964;-65
2024/01/12 11:09:02;;;;;;;;;;;1.40;99.90;;;;;;5043673;28;19921;-67
2024/01/12 11:11:32;;;;;;;;;;;1.40;99.90;;;;;;5036785;28;19921;-67
2024/01/12 11:14:01;;;;;;;;;;;1.30;99.90;;;;;;5041766;28;19920;-66
2024/01/12 11:16:28;;;;;;;;;;;1.40;99.90;;;;;;5038465;28;20482;-68
2024/01/12 11:18:56;;;;;;;;;;;1.50;99.90;;;;;;5044026;28;19920;-67
2024/01/12 11:21:25;;;;;;;;;;;1.50;99.90;;;;;;5038231;28;19927;-67
2024/01/12 11:23:54;;;;;;;;;;;1.40;99.90;;;;;;5035998;28;19948;-67
2024/01/12 11:26:23;;;;;;;;;;;1.30;99.90;;;;;;5032873;28;19921;-67
2024/01/12 11:28:51;;;;;;;;;;;1.30;99.90;;;;;;5033115;28;19921;-67
2024/01/12 11:31:25;;;;;;;;;;;1.30;99.90;;;;;;5033190;28;19925;-67
2024/01/12 11:34:00;;;;;;;;;;;1.20;99.90;;;;;;5041659;28;20012;-67
2024/01/12 11:36:29;;;;;;;;;;;1.30;99.90;;;;;;5038899;28;20000;-67
2024/01/12 11:38:59;;;;;;;;;;;1.30;99.90;;;;;;5041087;28;19975;-67
2024/01/12 11:41:30;;;;;;;;;;;1.30;99.90;;;;;;5041124;28;20400;-67
2024/01/12 11:44:00;;;;;;;;;;;1.40;99.90;;;;;;5041364;28;19921;-67
2024/01/12 11:46:29;;;;;;;;;;;1.50;99.90;;;;;;5032099;28;19925;-67
2024/01/12 11:48:58;;;;;;;;;;;1.40;99.90;;;;;;5022760;28;19924;-67
2024/01/12 11:51:28;;;;;;;;;;;1.30;99.90;;;;;;5040436;28;20384;-65
2024/01/12 11:53:57;;;;;;;;;;;1.40;99.90;;;;;;5033141;28;20351;-67
2024/01/12 11:56:26;;;;;;;;;;;1.40;99.90;;;;;;5039359;28;19956;-67
2024/01/12 11:58:56;;;;;;;;;;;1.20;99.90;;;;;;5031769;28;19921;-67
2024/01/12 12:01:24;;;;;;;;;;;1.20;99.90;;;;;;5041195;28;20084;-66
2024/01/12 12:03:53;;;;;;;;;;;1.20;99.90;;;;;;5032468;28;19921;-66
2024/01/12 12:06:21;;;;;;;;;;;1.20;99.90;;;;;;5032142;28;20307;-66
2024/01/12 12:08:52;;;;;;;;;;;1.30;99.90;;;;;;5048239;28;19921;-66
2024/01/12 12:11:21;;;;;;;;;;;1.30;99.90;;;;;;5030455;28;19921;-66
2024/01/12 12:13:50;;;;;;;;;;;1.30;99.90;;;;;;5032804;28;19921;-66
2024/01/12 12:16:20;;;;;;;;;;;1.20;99.90;;;;;;5035213;28;20284;-66
2024/01/12 12:18:47;;;;;;;;;;;1.30;99.90;;;;;;5036199;28;20318;-66
2024/01/12 12:21:16;;;;;;;;;;;1.20;99.90;;;;;;5045681;28;19925;-66
2024/01/12 12:23:44;;;;;;;;;;;1.30;99.90;;;;;;5037139;28;19925;-67
2024/01/12 12:26:12;;;;;;;;;;;1.40;99.90;;;;;;5042689;28;19928;-66
2024/01/12 12:28:40;;;;;;;;;;;1.40;99.90;;;;;;5034177;28;19920;-66
2024/01/12 12:31:08;;;;;;;;;;;1.40;99.90;;;;;;5032020;28;19920;-66
2024/01/12 12:33:38;;;;;;;;;;;1.50;99.90;;;;;;5040375;28;19920;-66
2024/01/12 12:36:07;;;;;;;;;;;1.50;99.90;;;;;;5032917;28;20023;-66
2024/01/12 12:38:37;;;;;;;;;;;1.50;99.90;;;;;;5043633;28;20312;-66
2024/01/12 12:41:06;;;;;;;;;;;1.50;99.90;;;;;;5035273;28;19949;-67
2024/01/12 12:43:34;;;;;;;;;;;1.70;99.90;;;;;;5052180;28;19924;-66
2024/01/12 12:46:02;;;;;;;;;;;1.70;99.90;;;;;;5035060;28;19921;-66
2024/01/12 12:48:30;;;;;;;;;;;1.80;99.90;;;;;;5039273;28;19921;-66
2024/01/12 12:50:59;;;;;;;;;;;1.90;99.90;;;;;;5031822;28;20015;-65
2024/01/12 12:53:28;;;;;;;;;;;1.80;99.90;;;;;;5039684;28;19921;-66
2024/01/12 12:55:56;;;;;;;;;;;1.80;99.90;;;;;;5031653;28;19925;-66
2024/01/12 12:58:25;;;;;;;;;;;1.80;99.90;;;;;;5025392;28;19928;-67
2024/01/12 13:00:52;;;;;;;;;;;1.70;99.90;;;;;;5032777;28;19921;-66
2024/01/12 13:03:20;;;;;;;;;;;1.60;99.90;;;;;;5044371;28;19960;-66
2024/01/12 13:05:48;;;;;;;;;;;1.60;99.90;;;;;;5044577;28;19927;-66
2024/01/12 13:08:19;;;;;;;;;;;1.60;99.90;;;;;;5044199;28;19931;-67
2024/01/12 13:10:47;;;;;;;;;;;1.60;99.90;;;;;;5035878;28;20380;-66
2024/01/12 13:13:15;;;;;;;;;;;1.60;99.90;;;;;;5043946;28;20007;-66
2024/01/12 13:15:43;;;;;;;;;;;1.60;99.90;;;;;;5035849;28;20365;-66
2024/01/12 13:18:11;;;;;;;;;;;1.60;99.90;;;;;;5043288;28;20291;-67
2024/01/12 13:20:40;;;;;;;;;;;1.50;99.90;;;;;;5035846;28;20300;-66
2024/01/12 13:23:08;;;;;;;;;;;1.60;99.90;;;;;;5044822;28;19964;-66
2024/01/12 13:25:37;;;;;;;;;;;1.50;99.90;;;;;;5042136;28;19928;-66
2024/01/12 13:28:05;;;;;;;;;;;1.40;99.90;;;;;;5035192;28;19975;-66
2024/01/12 13:30:32;;;;;;;;;;;1.50;99.90;;;;;;5036234;28;19921;-66
2024/01/12 13:33:00;;;;;;;;;;;1.30;99.90;;;;;;5036289;28;20358;-66
2024/01/12 13:35:28;;;;;;;;;;;1.30;99.90;;;;;;5028649;28;20226;-66
2024/01/12 13:37:56;;;;;;;;;;;1.10;99.90;;;;;;5035902;28;19979;-66
2024/01/12 13:40:24;;;;;;;;;;;1.10;99.90;;;;;;5035001;28;20350;-66
2024/01/12 13:42:53;;;;;;;;;;;1.00;99.90;;;;;;5035075;28;19921;-66
2024/01/12 13:45:21;;;;;;;;;;;1.00;99.90;;;;;;5042777;28;20315;-66
2024/01/12 13:47:49;;;;;;;;;;;1.10;99.90;;;;;;5043667;28;19984;-66
2024/01/12 13:50:17;;;;;;;;;;;1.10;99.90;;;;;;5045042;28;19921;-66
2024/01/12 13:52:45;;;;;;;;;;;1.10;99.90;;;;;;5041188;28;20447;-66
2024/01/12 13:55:13;;;;;;;;;;;0.90;99.90;;;;;;5035788;28;20331;-66
2024/01/12 13:57:41;;;;;;;;;;;0.80;99.90;;;;;;5047062;28;19925;-66
2024/01/12 14:00:12;;;;;;;;;;;0.90;99.90;;;;;;5034698;28;20403;-66
2024/01/12 14:02:42;;;;;;;;;;;1.10;99.90;;;;;;5040093;28;19944;-66
2024/01/12 14:05:10;;;;;;;;;;;1.10;99.90;;;;;;5036861;28;19921;-65
2024/01/12 14:07:45;;;;;;;;;;;1.10;99.90;;;;;;5043355;28;19944;-66
2024/01/12 14:10:13;;;;;;;;;;;1.00;99.90;;;;;;5042656;28;19920;-66
2024/01/12 14:12:41;;;;;;;;;;;0.90;99.90;;;;;;5034467;28;19925;-66
2024/01/12 14:15:10;;;;;;;;;;;0.80;99.90;;;;;;5042864;28;19921;-66
2024/01/12 14:17:39;;;;;;;;;;;0.70;99.90;;;;;;5041648;28;19921;-66
2024/01/12 14:20:10;;;;;;;;;;;0.60;99.90;;;;;;5051476;28;19924;-65
2024/01/12 14:22:39;;;;;;;;;;;0.70;99.90;;;;;;5049610;28;19943;-66
2024/01/12 14:25:07;;;;;;;;;;;0.60;99.90;;;;;;5042802;28;20431;-65
2024/01/12 14:27:35;;;;;;;;;;;0.60;99.90;;;;;;5034578;28;19944;-66
2024/01/12 14:30:03;;;;;;;;;;;0.60;99.90;;;;;;5042624;28;19928;-67
2024/01/12 14:32:32;;;;;;;;;;;0.70;99.90;;;;;;5030578;28;19921;-66
2024/01/12 14:35:02;;;;;;;;;;;0.70;99.90;;;;;;5046877;28;19927;-67
2024/01/12 14:37:30;;;;;;;;;;;0.70;99.90;;;;;;5041947;28;20009;-66